Time;durP1;ratioP1;P1;durP2;ratioP2;P2;SDS_P1;SDS_P2;PMS_P1;PMS_P2;Temp;Humidity;BMP_temperature;BMP_pressure;BME280_temperature;BME280_humidity;BME280_pressure;Samples;Min_cycle;Max_cycle;Signal;HPM_P1;HPM_P2
2022/03/05 00:00:51;;;;;;;9.40;7.00;;;;;;;;;;5038559;28;20474;-68
2022/03/05 00:03:17;;;;;;;8.23;6.35;;;;;;;;;;5038059;28;20379;-69
2022/03/05 00:05:43;;;;;;;9.88;6.55;;;;;;;;;;5036677;28;20396;-68
2022/03/05 00:08:09;;;;;;;9.43;6.25;;;;;;;;;;5033959;28;20026;-68
2022/03/05 00:10:36;;;;;;;11.88;5.80;;;;;;;;;;5030013;28;20553;-68
2022/03/05 00:13:02;;;;;;;10.75;6.45;;;;;;;;;;5033451;28;20041;-68
2022/03/05 00:15:28;;;;;;;9.63;7.70;;;;;;;;;;5037856;28;20473;-68
2022/03/05 00:17:55;;;;;;;10.93;7.70;;;;;;;;;;5030801;28;20022;-68
2022/03/05 00:20:24;;;;;;;13.55;7.60;;;;;;;;;;5033641;28;20029;-68
2022/03/05 00:22:53;;;;;;;12.55;7.15;;;;;;;;;;5031610;28;20027;-68
2022/03/05 00:25:21;;;;;;;9.38;7.00;;;;;;;;;;5034446;28;20063;-68
2022/03/05 00:27:47;;;;;;;10.10;7.43;;;;;;;;;;5038058;28;20474;-68
2022/03/05 00:30:13;;;;;;;9.68;7.65;;;;;;;;;;5038304;28;20115;-68
2022/03/05 00:32:39;;;;;;;11.55;8.27;;;;;;;;;;5039754;28;20037;-68
2022/03/05 00:35:07;;;;;;;11.00;8.55;;;;;;;;;;5033147;28;20533;-68
2022/03/05 00:37:33;;;;;;;11.32;7.53;;;;;;;;;;5038120;28;20043;-68
2022/03/05 00:39:58;;;;;;;10.63;7.13;;;;;;;;;;5045634;28;20048;-68
2022/03/05 00:42:24;;;;;;;20.42;10.30;;;;;;;;;;5033452;28;20037;-68
2022/03/05 00:44:50;;;;;;;20.13;12.43;;;;;;;;;;5029263;28;20038;-68
2022/03/05 00:47:17;;;;;;;22.30;11.90;;;;;;;;;;5038706;28;20044;-68
2022/03/05 00:49:43;;;;;;;21.80;12.57;;;;;;;;;;5040828;28;20025;-68
2022/03/05 00:52:09;;;;;;;12.13;7.63;;;;;;;;;;5043645;28;20041;-68
2022/03/05 00:54:35;;;;;;;11.45;6.90;;;;;;;;;;5036636;28;20079;-68
2022/03/05 00:57:01;;;;;;;10.05;6.07;;;;;;;;;;5035862;28;20056;-68
2022/03/05 00:59:27;;;;;;;10.50;6.20;;;;;;;;;;5040060;28;20037;-68
2022/03/05 01:01:52;;;;;;;9.52;5.90;;;;;;;;;;5040516;28;20034;-68
2022/03/05 01:04:18;;;;;;;7.95;6.40;;;;;;;;;;5034462;28;20041;-68
2022/03/05 01:06:44;;;;;;;11.10;6.53;;;;;;;;;;5038610;28;20029;-68
2022/03/05 01:09:10;;;;;;;7.43;6.28;;;;;;;;;;5037151;28;20022;-68
2022/03/05 01:11:37;;;;;;;9.15;6.28;;;;;;;;;;5038472;28;20487;-68
2022/03/05 01:14:03;;;;;;;7.55;6.00;;;;;;;;;;5036118;28;20049;-68
2022/03/05 01:16:29;;;;;;;10.77;7.15;;;;;;;;;;5039231;28;20072;-68
2022/03/05 01:18:54;;;;;;;14.32;8.00;;;;;;;;;;5036444;28;20057;-68
2022/03/05 01:21:20;;;;;;;8.25;6.25;;;;;;;;;;5034565;28;20029;-69
2022/03/05 01:23:46;;;;;;;13.85;7.60;;;;;;;;;;5043574;28;20021;-68
2022/03/05 01:26:12;;;;;;;11.48;6.78;;;;;;;;;;5037564;28;20128;-69
2022/03/05 01:28:37;;;;;;;10.68;6.30;;;;;;;;;;5035460;28;20109;-68
2022/03/05 01:31:03;;;;;;;16.40;8.40;;;;;;;;;;5038894;28;20375;-68
2022/03/05 01:33:29;;;;;;;12.68;7.28;;;;;;;;;;5039029;28;20057;-68
2022/03/05 01:35:54;;;;;;;10.32;6.93;;;;;;;;;;5036078;28;20029;-68
2022/03/05 01:38:20;;;;;;;11.00;6.47;;;;;;;;;;5040763;28;20026;-68
2022/03/05 01:40:46;;;;;;;10.15;6.80;;;;;;;;;;5037863;28;20060;-68
2022/03/05 01:43:12;;;;;;;9.68;6.85;;;;;;;;;;5035354;28;20052;-68
2022/03/05 01:45:38;;;;;;;8.13;5.63;;;;;;;;;;5036019;28;20463;-68
2022/03/05 01:48:05;;;;;;;10.32;6.13;;;;;;;;;;5037101;28;20029;-68
2022/03/05 01:50:31;;;;;;;12.27;6.45;;;;;;;;;;5031384;28;20076;-68
2022/03/05 01:52:58;;;;;;;15.57;7.07;;;;;;;;;;5036157;28;20482;-68
2022/03/05 01:55:24;;;;;;;9.77;6.40;;;;;;;;;;5033480;28;20032;-68
2022/03/05 01:57:50;;;;;;;8.15;6.95;;;;;;;;;;5034481;28;20380;-68
2022/03/05 02:00:17;;;;;;;18.02;7.38;;;;;;;;;;5039343;28;20048;-68
2022/03/05 02:02:43;;;;;;;10.57;6.97;;;;;;;;;;5035664;28;20036;-68
2022/03/05 02:05:10;;;;;;;10.02;7.10;;;;;;;;;;5034262;28;20045;-68
2022/03/05 02:07:36;;;;;;;9.35;6.68;;;;;;;;;;5038472;28;20056;-68
2022/03/05 02:10:04;;;;;;;13.02;7.47;;;;;;;;;;5041886;28;20030;-68
2022/03/05 02:12:32;;;;;;;10.60;7.05;;;;;;;;;;5042223;28;20033;-68
2022/03/05 02:14:58;;;;;;;11.88;7.45;;;;;;;;;;5034611;28;20474;-68
2022/03/05 02:17:27;;;;;;;9.90;6.90;;;;;;;;;;5036928;28;20022;-68
2022/03/05 02:19:56;;;;;;;11.60;6.57;;;;;;;;;;5035459;28;20032;-68
2022/03/05 02:22:22;;;;;;;11.13;6.90;;;;;;;;;;5037510;28;20033;-68
2022/03/05 02:24:50;;;;;;;10.63;7.13;;;;;;;;;;5040797;28;20451;-67
2022/03/05 02:27:16;;;;;;;11.13;6.28;;;;;;;;;;5036798;28;20029;-68
2022/03/05 02:29:42;;;;;;;9.73;6.68;;;;;;;;;;5036367;28;20029;-67
2022/03/05 02:32:08;;;;;;;8.73;6.60;;;;;;;;;;5035140;28;20029;-68
2022/03/05 02:34:34;;;;;;;9.55;7.20;;;;;;;;;;5035621;28;20037;-68
2022/03/05 02:36:59;;;;;;;14.00;6.97;;;;;;;;;;5034301;28;20029;-68
2022/03/05 02:39:25;;;;;;;9.20;6.32;;;;;;;;;;5032494;28;20025;-68
2022/03/05 02:41:52;;;;;;;9.45;6.43;;;;;;;;;;5034162;28;20037;-68
2022/03/05 02:44:18;;;;;;;9.48;6.32;;;;;;;;;;5034971;28;20044;-67
2022/03/05 02:46:43;;;;;;;10.48;7.22;;;;;;;;;;5032107;28;20030;-68
2022/03/05 02:49:09;;;;;;;8.50;6.40;;;;;;;;;;5031566;28;20547;-68
2022/03/05 02:51:35;;;;;;;9.38;7.10;;;;;;;;;;5035136;28;20529;-68
2022/03/05 02:54:01;;;;;;;9.10;6.40;;;;;;;;;;5031314;28;20056;-67
2022/03/05 02:56:27;;;;;;;13.88;6.75;;;;;;;;;;5036244;28;20072;-68
2022/03/05 02:58:53;;;;;;;11.75;6.88;;;;;;;;;;5034096;28;20059;-67
2022/03/05 03:01:19;;;;;;;9.40;7.13;;;;;;;;;;5029980;28;20033;-68
2022/03/05 03:03:45;;;;;;;10.73;6.75;;;;;;;;;;5034251;28;20075;-68
2022/03/05 03:06:11;;;;;;;9.95;7.10;;;;;;;;;;5034199;28;20075;-67
2022/03/05 03:08:37;;;;;;;9.30;7.10;;;;;;;;;;5033676;28;20057;-68
2022/03/05 03:11:03;;;;;;;6.97;6.00;;;;;;;;;;5035358;28;20476;-67
2022/03/05 03:13:29;;;;;;;12.85;6.88;;;;;;;;;;5033702;28;20036;-67
2022/03/05 03:15:55;;;;;;;10.63;6.45;;;;;;;;;;5036334;28;20048;-68
2022/03/05 03:18:20;;;;;;;9.07;6.72;;;;;;;;;;5032383;28;20386;-67
2022/03/05 03:20:46;;;;;;;7.70;6.50;;;;;;;;;;5038879;28;20078;-66
2022/03/05 03:23:12;;;;;;;10.95;6.05;;;;;;;;;;5042634;28;20041;-68
2022/03/05 03:25:41;;;;;;;9.07;6.40;;;;;;;;;;5031147;28;20065;-67
2022/03/05 03:28:07;;;;;;;9.35;5.65;;;;;;;;;;5039705;28;20037;-66
2022/03/05 03:30:34;;;;;;;8.43;6.20;;;;;;;;;;5032404;28;20486;-68
2022/03/05 03:33:00;;;;;;;7.65;5.65;;;;;;;;;;5033682;28;20029;-67
2022/03/05 03:35:26;;;;;;;7.22;5.25;;;;;;;;;;5033682;28;20091;-68
2022/03/05 03:37:51;;;;;;;12.25;6.05;;;;;;;;;;5035114;28;20474;-68
2022/03/05 03:40:18;;;;;;;7.70;5.00;;;;;;;;;;5036910;28;20033;-69
2022/03/05 03:42:46;;;;;;;6.85;5.05;;;;;;;;;;5045024;28;20481;-68
2022/03/05 03:45:14;;;;;;;7.68;6.00;;;;;;;;;;5031947;28;20040;-68
2022/03/05 03:47:42;;;;;;;9.55;5.97;;;;;;;;;;5035015;28;20029;-68
2022/03/05 03:50:10;;;;;;;7.05;5.20;;;;;;;;;;5039550;28;20041;-67
2022/03/05 03:52:35;;;;;;;8.00;5.50;;;;;;;;;;5037954;28;20063;-68
2022/03/05 03:55:03;;;;;;;6.63;5.95;;;;;;;;;;5030042;28;20494;-67
2022/03/05 03:57:29;;;;;;;7.45;6.00;;;;;;;;;;5034616;28;20029;-68
2022/03/05 03:59:54;;;;;;;7.30;5.80;;;;;;;;;;5029321;28;20025;-67
2022/03/05 04:02:22;;;;;;;8.05;5.32;;;;;;;;;;5038361;28;20078;-68
2022/03/05 04:04:48;;;;;;;7.50;5.70;;;;;;;;;;5031292;28;20033;-67
2022/03/05 04:09:58;;;;;;;7.82;5.35;;;;;;;;;;5038181;28;20075;-68
2022/03/05 04:12:24;;;;;;;7.32;5.68;;;;;;;;;;5032188;28;20084;-67
2022/03/05 04:14:59;;;;;;;5.68;4.80;;;;;;;;;;5029655;28;20446;-67
2022/03/05 04:17:26;;;;;;;6.63;5.00;;;;;;;;;;5033028;28;20059;-67
2022/03/05 04:19:51;;;;;;;6.45;5.30;;;;;;;;;;5031720;28;20065;-68
2022/03/05 04:22:17;;;;;;;7.20;4.93;;;;;;;;;;5034799;28;20034;-67
2022/03/05 04:24:43;;;;;;;9.23;5.47;;;;;;;;;;5041332;28;20044;-67
2022/03/05 04:27:09;;;;;;;6.35;5.20;;;;;;;;;;5037504;28;20132;-67
2022/03/05 04:29:34;;;;;;;7.18;5.32;;;;;;;;;;5042992;28;20032;-68
2022/03/05 04:32:00;;;;;;;6.80;5.90;;;;;;;;;;5046646;28;20115;-67
2022/03/05 04:34:26;;;;;;;7.28;5.63;;;;;;;;;;5033770;28;20069;-67
2022/03/05 04:36:52;;;;;;;8.43;5.78;;;;;;;;;;5038554;28;20094;-67
2022/03/05 04:39:17;;;;;;;9.77;5.80;;;;;;;;;;5036773;28;20037;-67
2022/03/05 04:41:43;;;;;;;6.43;5.25;;;;;;;;;;5039278;28;20382;-66
2022/03/05 04:44:09;;;;;;;8.13;5.78;;;;;;;;;;5039794;28;20033;-66
2022/03/05 04:46:35;;;;;;;13.38;5.97;;;;;;;;;;5034824;28;20024;-67
2022/03/05 04:49:01;;;;;;;8.27;6.13;;;;;;;;;;5037048;28;20436;-67
2022/03/05 04:51:27;;;;;;;5.97;5.38;;;;;;;;;;5038894;28;20163;-66
2022/03/05 04:53:53;;;;;;;7.38;5.75;;;;;;;;;;5038448;28;20116;-68
2022/03/05 04:56:19;;;;;;;7.43;5.82;;;;;;;;;;5038212;28;20033;-68
2022/03/05 04:58:44;;;;;;;12.77;6.70;;;;;;;;;;5037743;28;20040;-67
2022/03/05 05:01:10;;;;;;;7.93;6.28;;;;;;;;;;5040556;28;20029;-68
2022/03/05 05:03:36;;;;;;;8.15;5.70;;;;;;;;;;5040013;28;20584;-67
2022/03/05 05:06:02;;;;;;;10.82;6.38;;;;;;;;;;5038733;28;20041;-67
2022/03/05 05:08:28;;;;;;;8.85;6.43;;;;;;;;;;5035113;28;20497;-67
2022/03/05 05:10:53;;;;;;;11.05;6.57;;;;;;;;;;5039028;28;20025;-67
2022/03/05 05:13:19;;;;;;;8.52;6.60;;;;;;;;;;5038366;28;20433;-68
2022/03/05 05:15:47;;;;;;;7.95;6.43;;;;;;;;;;5031923;28;20068;-67
2022/03/05 05:18:13;;;;;;;13.00;6.10;;;;;;;;;;5036786;28;20048;-67
2022/03/05 05:20:39;;;;;;;8.65;6.28;;;;;;;;;;5035726;28;20143;-67
2022/03/05 05:23:05;;;;;;;6.93;5.97;;;;;;;;;;5035617;28;20044;-67
2022/03/05 05:25:31;;;;;;;10.43;6.15;;;;;;;;;;5040486;28;20042;-67
2022/03/05 05:27:56;;;;;;;10.23;6.18;;;;;;;;;;5037276;28;20033;-67
2022/03/05 05:30:22;;;;;;;7.22;6.32;;;;;;;;;;5037616;28;20038;-68
2022/03/05 05:32:48;;;;;;;8.07;5.85;;;;;;;;;;5034188;28;20037;-67
2022/03/05 05:35:14;;;;;;;7.82;6.10;;;;;;;;;;5037293;28;20038;-68
2022/03/05 05:37:40;;;;;;;8.00;6.18;;;;;;;;;;5034092;28;20075;-68
2022/03/05 05:40:06;;;;;;;8.98;6.35;;;;;;;;;;5035636;28;20040;-67
2022/03/05 05:42:33;;;;;;;6.68;5.97;;;;;;;;;;5043138;28;20037;-68
2022/03/05 05:44:58;;;;;;;8.60;6.45;;;;;;;;;;5037991;28;20025;-67
2022/03/05 05:47:24;;;;;;;6.68;5.88;;;;;;;;;;5036104;28;20021;-67
2022/03/05 05:49:50;;;;;;;8.35;6.22;;;;;;;;;;5039328;28;20060;-67
2022/03/05 05:52:16;;;;;;;9.45;6.22;;;;;;;;;;5037458;28;20044;-68
2022/03/05 05:54:41;;;;;;;7.90;6.35;;;;;;;;;;5033195;28;20045;-67
2022/03/05 05:57:07;;;;;;;9.45;5.80;;;;;;;;;;5043520;28;20032;-67
2022/03/05 05:59:34;;;;;;;9.65;6.72;;;;;;;;;;5036098;28;20653;-67
2022/03/05 06:01:59;;;;;;;7.65;6.00;;;;;;;;;;5033844;28;20026;-67
2022/03/05 06:04:25;;;;;;;9.32;6.68;;;;;;;;;;5031856;28;20036;-68
2022/03/05 06:06:51;;;;;;;7.40;6.20;;;;;;;;;;5040647;28;20029;-67
2022/03/05 06:09:17;;;;;;;8.20;6.45;;;;;;;;;;5034109;28;20045;-67
2022/03/05 06:11:42;;;;;;;13.52;6.78;;;;;;;;;;5041151;28;20472;-68
2022/03/05 06:14:08;;;;;;;11.85;7.50;;;;;;;;;;5037296;28;20041;-66
2022/03/05 06:16:34;;;;;;;12.30;6.60;;;;;;;;;;5034294;28;20104;-67
2022/03/05 06:18:59;;;;;;;10.07;7.93;;;;;;;;;;5033320;28;20219;-67
2022/03/05 06:21:25;;;;;;;11.00;7.45;;;;;;;;;;5037017;28;20573;-68
2022/03/05 06:23:51;;;;;;;12.98;7.95;;;;;;;;;;5034151;28;20029;-68
2022/03/05 06:26:16;;;;;;;15.45;8.63;;;;;;;;;;5040397;28;20048;-67
2022/03/05 06:28:42;;;;;;;11.93;7.93;;;;;;;;;;5031133;28;20033;-68
2022/03/05 06:31:08;;;;;;;12.63;8.05;;;;;;;;;;5041855;28;20081;-67
2022/03/05 06:33:34;;;;;;;13.73;8.18;;;;;;;;;;5037579;28;20041;-67
2022/03/05 06:35:59;;;;;;;10.52;8.32;;;;;;;;;;5035846;28;20033;-67
2022/03/05 06:38:25;;;;;;;17.83;10.00;;;;;;;;;;5036392;28;20028;-67
2022/03/05 06:40:51;;;;;;;16.08;10.07;;;;;;;;;;5033330;28;20029;-67
2022/03/05 06:43:18;;;;;;;16.83;10.00;;;;;;;;;;5031205;28;20075;-67
2022/03/05 06:45:44;;;;;;;20.55;11.15;;;;;;;;;;5031275;28;20470;-68
2022/03/05 06:48:10;;;;;;;17.95;11.23;;;;;;;;;;5036022;28;20033;-67
2022/03/05 06:50:37;;;;;;;14.30;10.25;;;;;;;;;;5041105;28;20036;-68
2022/03/05 06:53:03;;;;;;;15.70;8.52;;;;;;;;;;5035314;28;20044;-67
2022/03/05 06:55:28;;;;;;;9.68;8.00;;;;;;;;;;5031735;28;20025;-67
2022/03/05 06:57:54;;;;;;;11.07;8.00;;;;;;;;;;5040251;28;20033;-68
2022/03/05 07:00:20;;;;;;;10.57;8.40;;;;;;;;;;5034890;28;20029;-67
2022/03/05 07:02:46;;;;;;;13.02;8.57;;;;;;;;;;5031214;28;20040;-68
2022/03/05 07:05:13;;;;;;;12.00;8.52;;;;;;;;;;5031150;28;20045;-67
2022/03/05 07:07:39;;;;;;;12.25;9.02;;;;;;;;;;5034655;28;20478;-67
2022/03/05 07:10:05;;;;;;;12.75;9.50;;;;;;;;;;5032295;28;20044;-68
2022/03/05 07:12:31;;;;;;;11.85;8.82;;;;;;;;;;5031465;28;20120;-68
2022/03/05 07:14:58;;;;;;;12.93;8.90;;;;;;;;;;5032866;28;20549;-68
2022/03/05 07:17:24;;;;;;;14.70;9.18;;;;;;;;;;5037706;28;20029;-68
2022/03/05 07:19:50;;;;;;;14.85;10.30;;;;;;;;;;5037685;28;20064;-68
2022/03/05 07:22:17;;;;;;;11.85;9.10;;;;;;;;;;5031567;28;20053;-68
2022/03/05 07:24:43;;;;;;;10.68;9.10;;;;;;;;;;5034218;28;20049;-68
2022/03/05 07:27:09;;;;;;;12.75;9.18;;;;;;;;;;5041032;28;20044;-68
2022/03/05 07:29:34;;;;;;;11.02;8.85;;;;;;;;;;5034910;28;20037;-67
2022/03/05 07:32:03;;;;;;;12.48;7.88;;;;;;;;;;5031284;28;20429;-68
2022/03/05 07:34:30;;;;;;;13.40;8.27;;;;;;;;;;5030468;28;20033;-67
2022/03/05 07:36:56;;;;;;;12.95;8.63;;;;;;;;;;5040912;28;20068;-67
2022/03/05 07:39:22;;;;;;;15.48;9.18;;;;;;;;;;5037747;28;20043;-68
2022/03/05 07:41:48;;;;;;;12.43;9.32;;;;;;;;;;5036641;28;20033;-68
2022/03/05 07:44:14;;;;;;;17.60;8.93;;;;;;;;;;5036369;28;20470;-67
2022/03/05 07:46:40;;;;;;;13.32;8.77;;;;;;;;;;5035650;28;20119;-68
2022/03/05 07:49:05;;;;;;;10.07;9.02;;;;;;;;;;5040617;28;20096;-68
2022/03/05 07:51:32;;;;;;;14.20;9.25;;;;;;;;;;5035844;28;20046;-68
2022/03/05 07:53:58;;;;;;;12.35;8.57;;;;;;;;;;5036972;28;20494;-68
2022/03/05 07:56:23;;;;;;;12.82;8.93;;;;;;;;;;5040140;28;20087;-69
2022/03/05 07:58:49;;;;;;;11.85;9.02;;;;;;;;;;5033559;28;20462;-68
2022/03/05 08:01:15;;;;;;;12.25;8.82;;;;;;;;;;5032352;28;20068;-69
2022/03/05 08:03:40;;;;;;;13.07;9.38;;;;;;;;;;5033979;28;20025;-69
2022/03/05 08:06:06;;;;;;;15.25;9.77;;;;;;;;;;5038226;28;20032;-68
2022/03/05 08:08:32;;;;;;;10.30;8.70;;;;;;;;;;5034766;28;20044;-69
2022/03/05 08:10:58;;;;;;;13.45;9.60;;;;;;;;;;5030600;28;20038;-68
2022/03/05 08:13:23;;;;;;;19.33;11.13;;;;;;;;;;5032806;28;20057;-68
2022/03/05 08:15:49;;;;;;;17.48;11.60;;;;;;;;;;5031834;28;20743;-69
2022/03/05 08:18:15;;;;;;;21.13;12.75;;;;;;;;;;5032501;28;20086;-68
2022/03/05 08:20:41;;;;;;;16.60;11.40;;;;;;;;;;5031448;28;20037;-69
2022/03/05 08:23:07;;;;;;;14.60;10.52;;;;;;;;;;5032955;28;20044;-69
2022/03/05 08:25:33;;;;;;;14.30;10.07;;;;;;;;;;5027485;28;20094;-69
2022/03/05 08:27:59;;;;;;;17.38;10.57;;;;;;;;;;5028123;28;20042;-70
2022/03/05 08:30:25;;;;;;;16.27;9.77;;;;;;;;;;5032270;28;20588;-68
2022/03/05 08:32:50;;;;;;;15.25;10.05;;;;;;;;;;5030666;28;20582;-67
2022/03/05 08:35:18;;;;;;;18.23;10.40;;;;;;;;;;5028441;28;20037;-67
2022/03/05 08:37:44;;;;;;;17.15;10.63;;;;;;;;;;5036187;28;20090;-68
2022/03/05 08:40:12;;;;;;;14.43;9.98;;;;;;;;;;5031448;28;20045;-68
2022/03/05 08:42:38;;;;;;;13.57;9.70;;;;;;;;;;5041087;28;20095;-67
2022/03/05 08:45:06;;;;;;;16.42;11.18;;;;;;;;;;5034600;28;20128;-69
2022/03/05 08:47:32;;;;;;;13.60;9.77;;;;;;;;;;5033221;28;20116;-68
2022/03/05 08:49:58;;;;;;;13.30;10.38;;;;;;;;;;5029898;28;20037;-69
2022/03/05 08:52:24;;;;;;;12.38;9.27;;;;;;;;;;5030317;28;20478;-68
2022/03/05 08:54:49;;;;;;;15.43;10.00;;;;;;;;;;5032981;28;20402;-68
2022/03/05 08:57:15;;;;;;;14.05;10.25;;;;;;;;;;5034591;28;20029;-68
2022/03/05 08:59:41;;;;;;;19.20;9.80;;;;;;;;;;5031447;28;20422;-69
2022/03/05 09:02:08;;;;;;;18.00;10.25;;;;;;;;;;5031674;28;20036;-68
2022/03/05 09:04:34;;;;;;;13.50;9.95;;;;;;;;;;5032433;28;20040;-69
2022/03/05 09:07:01;;;;;;;14.65;9.77;;;;;;;;;;5035592;28;20036;-68
2022/03/05 09:09:27;;;;;;;14.00;9.73;;;;;;;;;;5041291;28;20484;-68
2022/03/05 09:11:53;;;;;;;13.20;9.32;;;;;;;;;;5037330;28;20033;-68
2022/03/05 09:14:19;;;;;;;21.65;9.30;;;;;;;;;;5035001;28;20721;-68
2022/03/05 09:16:44;;;;;;;13.88;9.27;;;;;;;;;;5037548;28;20029;-68
2022/03/05 09:19:10;;;;;;;18.92;9.60;;;;;;;;;;5036577;28;20086;-68
2022/03/05 09:21:36;;;;;;;14.43;9.40;;;;;;;;;;5037133;28;20109;-68
2022/03/05 09:24:06;;;;;;;9.70;7.55;;;;;;;;;;5039935;28;20433;-68
2022/03/05 09:26:33;;;;;;;10.07;7.82;;;;;;;;;;5039211;28;20076;-68
2022/03/05 09:28:59;;;;;;;9.30;6.80;;;;;;;;;;5039746;28;20511;-67
2022/03/05 09:31:24;;;;;;;9.07;7.20;;;;;;;;;;5038825;28;20032;-68
2022/03/05 09:33:51;;;;;;;13.63;7.93;;;;;;;;;;5036779;28;20385;-68
2022/03/05 09:36:17;;;;;;;17.58;9.68;;;;;;;;;;5040659;28;20085;-68
2022/03/05 09:38:43;;;;;;;13.23;8.68;;;;;;;;;;5036646;28;20029;-68
2022/03/05 09:41:09;;;;;;;22.00;10.35;;;;;;;;;;5030825;28;20044;-67
2022/03/05 09:43:35;;;;;;;12.63;10.50;;;;;;;;;;5035034;28;20052;-68
2022/03/05 09:46:02;;;;;;;16.10;10.07;;;;;;;;;;5038215;28;20072;-68
2022/03/05 09:48:29;;;;;;;13.55;10.75;;;;;;;;;;5037174;28;20041;-68
2022/03/05 09:50:55;;;;;;;18.00;11.82;;;;;;;;;;5034789;28;20386;-68
2022/03/05 09:53:26;;;;;;;15.05;9.63;;;;;;;;;;5035017;28;20028;-68
2022/03/05 09:55:51;;;;;;;15.82;10.23;;;;;;;;;;5037762;28;20561;-68
2022/03/05 09:58:17;;;;;;;18.08;9.65;;;;;;;;;;5042329;28;20064;-68
2022/03/05 10:00:44;;;;;;;13.02;9.55;;;;;;;;;;5034788;28;20021;-68
2022/03/05 10:03:13;;;;;;;13.93;9.57;;;;;;;;;;5032050;28;20037;-68
2022/03/05 10:05:39;;;;;;;11.95;9.55;;;;;;;;;;5042056;28;20378;-68
2022/03/05 10:08:08;;;;;;;15.10;10.15;;;;;;;;;;5034555;28;20029;-68
2022/03/05 10:11:01;;;;;;;18.25;11.30;;;;;;;;;;5036716;28;20056;-68
2022/03/05 10:13:32;;;;;;;16.08;12.02;;;;;;;;;;5033495;28;20037;-68
2022/03/05 10:16:01;;;;;;;17.63;14.07;;;;;;;;;;5040008;28;20391;-68
2022/03/05 10:18:30;;;;;;;22.10;14.70;;;;;;;;;;5040189;28;20032;-68
2022/03/05 10:20:57;;;;;;;17.10;13.52;;;;;;;;;;5033497;28;20036;-68
2022/03/05 10:23:24;;;;;;;21.88;16.20;;;;;;;;;;5034647;28;20517;-68
2022/03/05 10:25:53;;;;;;;27.80;18.80;;;;;;;;;;5033169;28;20049;-68
2022/03/05 10:28:25;;;;;;;29.25;18.83;;;;;;;;;;5031356;28;20064;-68
2022/03/05 10:30:53;;;;;;;22.10;17.92;;;;;;;;;;5034550;28;20546;-68
2022/03/05 10:33:33;;;;;;;29.45;19.35;;;;;;;;;;5032207;28;20136;-68
2022/03/05 10:36:16;;;;;;;25.08;18.02;;;;;;;;;;5037421;28;20021;-68
2022/03/05 10:38:54;;;;;;;25.33;16.55;;;;;;;;;;5036203;28;20021;-68
2022/03/05 10:41:36;;;;;;;24.92;14.73;;;;;;;;;;5036542;28;20057;-68
2022/03/05 10:44:11;;;;;;;22.55;15.07;;;;;;;;;;5031298;28;20445;-68
2022/03/05 10:46:38;;;;;;;19.73;15.02;;;;;;;;;;5038678;28;20138;-68
2022/03/05 10:49:17;;;;;;;19.33;15.32;;;;;;;;;;5030295;28;20033;-67
2022/03/05 10:51:47;;;;;;;19.95;14.38;;;;;;;;;;5038361;28;20045;-68
2022/03/05 10:54:30;;;;;;;22.05;13.82;;;;;;;;;;5034120;28;20193;-68
2022/03/05 10:57:05;;;;;;;28.35;13.77;;;;;;;;;;5031709;28;20245;-68
2022/03/05 10:59:35;;;;;;;19.75;14.38;;;;;;;;;;5034711;28;20025;-67
2022/03/05 11:02:01;;;;;;;24.10;14.45;;;;;;;;;;5032010;28;20097;-67
2022/03/05 11:04:28;;;;;;;16.77;13.27;;;;;;;;;;5030770;28;20017;-67
2022/03/05 11:06:55;;;;;;;24.60;14.02;;;;;;;;;;5037293;28;20138;-67
2022/03/05 11:09:23;;;;;;;22.88;14.77;;;;;;;;;;5036843;28;20086;-68
2022/03/05 11:11:51;;;;;;;18.95;14.18;;;;;;;;;;5035364;28;20030;-67
2022/03/05 11:14:16;;;;;;;18.25;13.57;;;;;;;;;;5032429;28;20029;-67
2022/03/05 11:16:44;;;;;;;22.33;13.90;;;;;;;;;;5034834;28;20554;-67
2022/03/05 11:19:10;;;;;;;25.48;15.10;;;;;;;;;;5032553;28;20397;-67
2022/03/05 11:21:36;;;;;;;18.08;13.75;;;;;;;;;;5035702;28;20029;-67
2022/03/05 11:24:02;;;;;;;16.10;12.43;;;;;;;;;;5032190;28;20349;-67
2022/03/05 11:26:30;;;;;;;20.10;14.15;;;;;;;;;;5021653;28;20054;-67
2022/03/05 11:28:57;;;;;;;17.63;13.30;;;;;;;;;;5032191;28;20040;-67
2022/03/05 11:31:29;;;;;;;24.30;14.27;;;;;;;;;;5033413;28;20033;-67
2022/03/05 11:33:54;;;;;;;20.27;14.20;;;;;;;;;;5036909;28;20594;-67
2022/03/05 11:36:30;;;;;;;21.67;13.05;;;;;;;;;;5034669;28;20047;-67
2022/03/05 11:39:18;;;;;;;19.73;11.40;;;;;;;;;;5030902;28;20030;-68
2022/03/05 11:41:50;;;;;;;16.92;12.25;;;;;;;;;;5030684;28;20033;-67
2022/03/05 11:44:17;;;;;;;13.18;8.98;;;;;;;;;;5031146;28;20037;-67
2022/03/05 11:46:43;;;;;;;10.80;8.70;;;;;;;;;;5031484;28;20071;-67
2022/03/05 11:49:11;;;;;;;12.40;8.43;;;;;;;;;;5029943;28;20065;-67
2022/03/05 11:51:54;;;;;;;12.38;9.15;;;;;;;;;;5028303;28;20486;-67
2022/03/05 11:54:21;;;;;;;10.02;7.75;;;;;;;;;;5034497;28;20067;-68
2022/03/05 11:57:14;;;;;;;13.65;8.25;;;;;;;;;;5030882;28;20060;-67
2022/03/05 11:59:43;;;;;;;15.55;7.05;;;;;;;;;;5033547;28;20048;-68
2022/03/05 12:02:08;;;;;;;11.13;7.68;;;;;;;;;;5035732;28;20041;-66
2022/03/05 12:04:34;;;;;;;10.25;6.90;;;;;;;;;;5029355;28;20036;-67
2022/03/05 12:07:03;;;;;;;9.40;7.63;;;;;;;;;;5030361;28;20112;-67
2022/03/05 12:09:43;;;;;;;14.68;6.80;;;;;;;;;;5039405;28;20029;-67
2022/03/05 12:12:14;;;;;;;11.77;7.40;;;;;;;;;;5033688;28;20042;-68
2022/03/05 12:14:55;;;;;;;7.32;6.60;;;;;;;;;;5030836;28;20037;-68
2022/03/05 12:17:23;;;;;;;11.80;7.20;;;;;;;;;;5032620;28;20037;-65
2022/03/05 12:19:49;;;;;;;13.15;7.30;;;;;;;;;;5031937;28;20041;-66
2022/03/05 12:22:15;;;;;;;10.02;7.50;;;;;;;;;;5031706;28;20040;-66
2022/03/05 12:24:42;;;;;;;12.57;7.47;;;;;;;;;;5030426;28;20041;-66
2022/03/05 12:27:15;;;;;;;15.73;7.90;;;;;;;;;;5034137;28;20143;-67
2022/03/05 12:29:48;;;;;;;10.57;8.18;;;;;;;;;;5031608;28;20553;-66
2022/03/05 12:32:15;;;;;;;10.15;8.27;;;;;;;;;;5037453;28;20045;-66
2022/03/05 12:34:41;;;;;;;11.63;8.43;;;;;;;;;;5031456;28;20033;-66
2022/03/05 12:37:08;;;;;;;12.63;7.70;;;;;;;;;;5035008;28;20043;-66
2022/03/05 12:39:40;;;;;;;11.30;7.78;;;;;;;;;;5036389;28;20037;-66
2022/03/05 12:42:06;;;;;;;10.57;7.28;;;;;;;;;;5032330;28;20037;-66
2022/03/05 12:44:37;;;;;;;9.98;7.60;;;;;;;;;;5036938;28;20438;-66
2022/03/05 12:47:04;;;;;;;10.60;7.85;;;;;;;;;;5035198;28;20778;-65
2022/03/05 12:49:29;;;;;;;9.50;7.85;;;;;;;;;;5037123;28;20367;-65
2022/03/05 12:51:56;;;;;;;9.02;7.85;;;;;;;;;;5038385;28;20029;-66
2022/03/05 12:54:22;;;;;;;12.68;7.85;;;;;;;;;;5035298;28;20312;-68
2022/03/05 12:56:53;;;;;;;10.25;8.43;;;;;;;;;;5036493;28;20462;-68
2022/03/05 12:59:19;;;;;;;9.30;8.27;;;;;;;;;;5038510;28;20478;-67
2022/03/05 13:01:44;;;;;;;12.20;9.32;;;;;;;;;;5039411;28;20039;-67
2022/03/05 13:04:12;;;;;;;12.98;8.90;;;;;;;;;;5038154;28;20061;-67
2022/03/05 13:06:38;;;;;;;12.98;9.45;;;;;;;;;;5037119;28;20512;-67
2022/03/05 13:09:04;;;;;;;14.25;9.93;;;;;;;;;;5035335;28;20030;-67
2022/03/05 13:11:30;;;;;;;10.18;8.60;;;;;;;;;;5037890;28;20025;-66
2022/03/05 13:13:58;;;;;;;13.63;8.95;;;;;;;;;;5032758;28;20442;-67
2022/03/05 13:16:41;;;;;;;12.05;8.88;;;;;;;;;;5035612;28;24468;-66
2022/03/05 13:19:09;;;;;;;9.05;7.68;;;;;;;;;;5033280;28;20066;-67
2022/03/05 13:21:40;;;;;;;10.73;9.48;;;;;;;;;;5038871;28;20094;-67
2022/03/05 13:24:10;;;;;;;17.30;9.88;;;;;;;;;;5043208;28;20037;-67
2022/03/05 13:26:38;;;;;;;14.82;10.18;;;;;;;;;;5039193;28;20045;-67
2022/03/05 13:29:05;;;;;;;15.65;10.40;;;;;;;;;;5039937;28;20053;-66
2022/03/05 13:31:31;;;;;;;13.88;8.63;;;;;;;;;;5031170;28;20028;-66
2022/03/05 13:33:57;;;;;;;13.10;9.77;;;;;;;;;;5032811;28;20026;-66
2022/03/05 13:36:29;;;;;;;13.80;8.98;;;;;;;;;;5040192;28;20032;-66
2022/03/05 13:39:07;;;;;;;9.88;7.57;;;;;;;;;;5038743;28;20028;-67
2022/03/05 13:41:34;;;;;;;9.55;6.88;;;;;;;;;;5038971;28;20647;-66
2022/03/05 13:44:03;;;;;;;9.18;7.05;;;;;;;;;;5039396;28;20041;-67
2022/03/05 13:46:30;;;;;;;9.90;6.65;;;;;;;;;;5069029;28;20119;-66
2022/03/05 13:48:59;;;;;;;8.63;6.53;;;;;;;;;;5041543;28;20104;-65
2022/03/05 13:51:30;;;;;;;12.68;6.15;;;;;;;;;;5037512;28;20033;-67
2022/03/05 13:53:58;;;;;;;7.60;6.10;;;;;;;;;;5039212;28;20466;-67
2022/03/05 13:56:25;;;;;;;11.63;6.93;;;;;;;;;;5037465;28;20079;-66
2022/03/05 13:58:56;;;;;;;12.25;6.95;;;;;;;;;;5038193;28;20039;-66
2022/03/05 14:01:34;;;;;;;9.43;7.03;;;;;;;;;;5044670;28;20032;-66
2022/03/05 14:04:08;;;;;;;14.70;7.10;;;;;;;;;;5033098;28;20095;-67
2022/03/05 14:06:58;;;;;;;10.48;6.93;;;;;;;;;;5036437;28;20048;-67
2022/03/05 14:09:39;;;;;;;11.73;7.38;;;;;;;;;;5040656;28;20405;-67
2022/03/05 14:12:07;;;;;;;13.25;7.90;;;;;;;;;;5031623;28;20036;-67
2022/03/05 14:15:00;;;;;;;10.48;7.15;;;;;;;;;;5036086;28;20028;-67
2022/03/05 14:17:32;;;;;;;11.40;6.90;;;;;;;;;;5035371;28;20034;-67
2022/03/05 14:20:26;;;;;;;10.30;7.03;;;;;;;;;;5040883;28;20055;-67
2022/03/05 14:23:03;;;;;;;9.38;5.80;;;;;;;;;;5028543;28;20036;-67
2022/03/05 14:25:32;;;;;;;14.55;6.47;;;;;;;;;;5035886;28;20086;-68
2022/03/05 14:28:02;;;;;;;8.65;6.57;;;;;;;;;;5032311;28;20478;-68
2022/03/05 14:30:30;;;;;;;8.52;5.72;;;;;;;;;;5030779;28;20038;-68
2022/03/05 14:32:57;;;;;;;8.27;5.95;;;;;;;;;;5032060;28;20079;-66
2022/03/05 14:35:24;;;;;;;12.05;6.72;;;;;;;;;;5033518;28;20025;-67